sensor_id;sensor_type;location;lat;lon;timestamp;P1;durP1;ratioP1;P2;durP2;ratioP2
73219;SDS011;61434;43.538;-5.688;2022-12-07T00:01:35;19.58;;;11.18;;
73219;SDS011;61434;43.538;-5.688;2022-12-07T00:04:04;17.00;;;9.57;;
73219;SDS011;61434;43.538;-5.688;2022-12-07T00:06:35;20.55;;;10.57;;
73219;SDS011;61434;43.538;-5.688;2022-12-07T00:09:03;19.67;;;11.20;;
73219;SDS011;61434;43.538;-5.688;2022-12-07T00:11:30;21.30;;;11.85;;
73219;SDS011;61434;43.538;-5.688;2022-12-07T00:13:57;21.55;;;11.98;;
73219;SDS011;61434;43.538;-5.688;2022-12-07T00:16:29;24.98;;;13.43;;
73219;SDS011;61434;43.538;-5.688;2022-12-07T00:18:55;26.67;;;15.23;;
73219;SDS011;61434;43.538;-5.688;2022-12-07T00:21:22;26.83;;;17.50;;
73219;SDS011;61434;43.538;-5.688;2022-12-07T00:23:50;29.17;;;19.42;;
73219;SDS011;61434;43.538;-5.688;2022-12-07T00:26:18;30.95;;;20.20;;
73219;SDS011;61434;43.538;-5.688;2022-12-07T00:28:46;27.77;;;17.40;;
73219;SDS011;61434;43.538;-5.688;2022-12-07T00:31:12;24.17;;;15.60;;
73219;SDS011;61434;43.538;-5.688;2022-12-07T00:33:38;23.17;;;15.35;;
73219;SDS011;61434;43.538;-5.688;2022-12-07T00:36:08;23.90;;;13.33;;
73219;SDS011;61434;43.538;-5.688;2022-12-07T00:38:35;27.30;;;14.43;;
73219;SDS011;61434;43.538;-5.688;2022-12-07T00:41:06;23.33;;;13.10;;
73219;SDS011;61434;43.538;-5.688;2022-12-07T00:43:35;24.98;;;13.15;;
73219;SDS011;61434;43.538;-5.688;2022-12-07T00:46:00;26.10;;;12.77;;
73219;SDS011;61434;43.538;-5.688;2022-12-07T00:48:26;23.50;;;13.47;;
73219;SDS011;61434;43.538;-5.688;2022-12-07T00:50:52;24.65;;;16.13;;
73219;SDS011;61434;43.538;-5.688;2022-12-07T00:53:17;31.07;;;19.83;;
73219;SDS011;61434;43.538;-5.688;2022-12-07T00:55:43;33.80;;;23.83;;
73219;SDS011;61434;43.538;-5.688;2022-12-07T00:58:09;34.63;;;22.53;;
73219;SDS011;61434;43.538;-5.688;2022-12-07T01:00:35;33.78;;;23.45;;
73219;SDS011;61434;43.538;-5.688;2022-12-07T01:03:02;33.85;;;21.38;;
73219;SDS011;61434;43.538;-5.688;2022-12-07T01:05:28;32.05;;;22.48;;
73219;SDS011;61434;43.538;-5.688;2022-12-07T01:07:54;29.97;;;20.23;;
73219;SDS011;61434;43.538;-5.688;2022-12-07T01:10:19;31.23;;;19.20;;
73219;SDS011;61434;43.538;-5.688;2022-12-07T01:12:45;28.13;;;19.43;;
73219;SDS011;61434;43.538;-5.688;2022-12-07T01:15:10;26.97;;;19.03;;
73219;SDS011;61434;43.538;-5.688;2022-12-07T01:17:36;25.03;;;17.03;;
73219;SDS011;61434;43.538;-5.688;2022-12-07T01:20:02;29.87;;;17.00;;
73219;SDS011;61434;43.538;-5.688;2022-12-07T01:22:28;29.00;;;16.73;;
73219;SDS011;61434;43.538;-5.688;2022-12-07T01:24:53;27.50;;;16.47;;
73219;SDS011;61434;43.538;-5.688;2022-12-07T01:27:19;28.13;;;16.60;;
73219;SDS011;61434;43.538;-5.688;2022-12-07T01:29:45;26.83;;;15.83;;
73219;SDS011;61434;43.538;-5.688;2022-12-07T01:32:11;25.48;;;14.82;;
73219;SDS011;61434;43.538;-5.688;2022-12-07T01:34:37;24.85;;;14.23;;
73219;SDS011;61434;43.538;-5.688;2022-12-07T01:37:02;23.93;;;14.37;;
73219;SDS011;61434;43.538;-5.688;2022-12-07T01:39:28;25.53;;;15.13;;
73219;SDS011;61434;43.538;-5.688;2022-12-07T01:41:53;27.83;;;17.13;;
73219;SDS011;61434;43.538;-5.688;2022-12-07T01:44:23;25.50;;;17.15;;
73219;SDS011;61434;43.538;-5.688;2022-12-07T01:49:26;24.65;;;15.23;;
73219;SDS011;61434;43.538;-5.688;2022-12-07T01:52:20;22.45;;;13.27;;
73219;SDS011;61434;43.538;-5.688;2022-12-07T01:54:53;21.08;;;12.45;;
73219;SDS011;61434;43.538;-5.688;2022-12-07T01:57:21;24.20;;;14.45;;
73219;SDS011;61434;43.538;-5.688;2022-12-07T01:59:48;26.40;;;15.13;;
73219;SDS011;61434;43.538;-5.688;2022-12-07T02:02:34;27.83;;;17.95;;
73219;SDS011;61434;43.538;-5.688;2022-12-07T02:05:03;31.85;;;19.75;;
73219;SDS011;61434;43.538;-5.688;2022-12-07T02:07:30;41.05;;;28.33;;
73219;SDS011;61434;43.538;-5.688;2022-12-07T02:09:57;49.33;;;32.30;;
73219;SDS011;61434;43.538;-5.688;2022-12-07T02:12:36;52.47;;;34.80;;
73219;SDS011;61434;43.538;-5.688;2022-12-07T02:15:01;45.80;;;29.48;;
73219;SDS011;61434;43.538;-5.688;2022-12-07T02:17:37;45.95;;;27.52;;
73219;SDS011;61434;43.538;-5.688;2022-12-07T02:32:07;21.02;;;12.35;;
73219;SDS011;61434;43.538;-5.688;2022-12-07T02:34:43;24.63;;;12.97;;
73219;SDS011;61434;43.538;-5.688;2022-12-07T02:37:18;20.60;;;12.60;;
73219;SDS011;61434;43.538;-5.688;2022-12-07T02:40:05;23.58;;;12.10;;
73219;SDS011;61434;43.538;-5.688;2022-12-07T02:42:45;21.73;;;11.90;;
73219;SDS011;61434;43.538;-5.688;2022-12-07T02:45:15;18.35;;;11.52;;
73219;SDS011;61434;43.538;-5.688;2022-12-07T02:47:45;26.73;;;12.83;;
73219;SDS011;61434;43.538;-5.688;2022-12-07T02:50:17;22.23;;;12.25;;
73219;SDS011;61434;43.538;-5.688;2022-12-07T02:52:44;21.42;;;11.95;;
73219;SDS011;61434;43.538;-5.688;2022-12-07T02:55:10;19.53;;;11.97;;
73219;SDS011;61434;43.538;-5.688;2022-12-07T03:00:31;27.92;;;12.68;;
73219;SDS011;61434;43.538;-5.688;2022-12-07T03:03:08;24.77;;;12.40;;
73219;SDS011;61434;43.538;-5.688;2022-12-07T03:08:30;22.95;;;11.93;;
73219;SDS011;61434;43.538;-5.688;2022-12-07T03:11:09;25.02;;;11.98;;
73219;SDS011;61434;43.538;-5.688;2022-12-07T03:13:54;23.95;;;12.68;;
73219;SDS011;61434;43.538;-5.688;2022-12-07T03:16:37;23.63;;;12.48;;
73219;SDS011;61434;43.538;-5.688;2022-12-07T03:19:15;24.53;;;12.70;;
73219;SDS011;61434;43.538;-5.688;2022-12-07T03:21:51;24.90;;;13.75;;
73219;SDS011;61434;43.538;-5.688;2022-12-07T03:24:23;20.60;;;12.63;;
73219;SDS011;61434;43.538;-5.688;2022-12-07T03:26:52;24.10;;;13.00;;
73219;SDS011;61434;43.538;-5.688;2022-12-07T03:29:27;23.48;;;12.48;;
73219;SDS011;61434;43.538;-5.688;2022-12-07T03:32:04;23.43;;;12.90;;
73219;SDS011;61434;43.538;-5.688;2022-12-07T03:34:39;22.13;;;13.52;;
73219;SDS011;61434;43.538;-5.688;2022-12-07T03:42:22;21.50;;;13.48;;
73219;SDS011;61434;43.538;-5.688;2022-12-07T03:44:47;21.20;;;12.50;;
73219;SDS011;61434;43.538;-5.688;2022-12-07T03:50:02;26.57;;;15.30;;
73219;SDS011;61434;43.538;-5.688;2022-12-07T03:52:40;27.88;;;17.80;;
73219;SDS011;61434;43.538;-5.688;2022-12-07T03:58:05;26.73;;;16.50;;
73219;SDS011;61434;43.538;-5.688;2022-12-07T04:00:36;26.13;;;16.48;;
73219;SDS011;61434;43.538;-5.688;2022-12-07T04:03:02;26.40;;;16.30;;
73219;SDS011;61434;43.538;-5.688;2022-12-07T04:05:27;29.75;;;17.23;;
73219;SDS011;61434;43.538;-5.688;2022-12-07T04:07:53;24.83;;;14.90;;
73219;SDS011;61434;43.538;-5.688;2022-12-07T04:10:18;28.38;;;15.15;;
73219;SDS011;61434;43.538;-5.688;2022-12-07T04:12:44;25.60;;;14.70;;
73219;SDS011;61434;43.538;-5.688;2022-12-07T04:15:09;32.53;;;16.13;;
73219;SDS011;61434;43.538;-5.688;2022-12-07T04:17:35;26.60;;;16.45;;
73219;SDS011;61434;43.538;-5.688;2022-12-07T04:20:01;26.17;;;17.53;;
73219;SDS011;61434;43.538;-5.688;2022-12-07T04:22:27;30.73;;;17.92;;
73219;SDS011;61434;43.538;-5.688;2022-12-07T04:24:52;27.60;;;17.53;;
73219;SDS011;61434;43.538;-5.688;2022-12-07T04:27:18;26.10;;;16.67;;
73219;SDS011;61434;43.538;-5.688;2022-12-07T04:29:43;29.20;;;17.63;;
73219;SDS011;61434;43.538;-5.688;2022-12-07T04:32:08;29.70;;;18.90;;
73219;SDS011;61434;43.538;-5.688;2022-12-07T04:34:34;32.37;;;22.00;;
73219;SDS011;61434;43.538;-5.688;2022-12-07T04:37:00;31.30;;;21.40;;
73219;SDS011;61434;43.538;-5.688;2022-12-07T04:39:26;32.17;;;21.25;;
73219;SDS011;61434;43.538;-5.688;2022-12-07T04:41:53;33.23;;;22.03;;
73219;SDS011;61434;43.538;-5.688;2022-12-07T04:44:20;33.13;;;21.55;;
73219;SDS011;61434;43.538;-5.688;2022-12-07T04:46:46;27.23;;;18.33;;
73219;SDS011;61434;43.538;-5.688;2022-12-07T04:49:12;28.27;;;17.02;;
73219;SDS011;61434;43.538;-5.688;2022-12-07T04:51:39;28.47;;;15.63;;
73219;SDS011;61434;43.538;-5.688;2022-12-07T04:54:05;24.23;;;14.65;;
73219;SDS011;61434;43.538;-5.688;2022-12-07T04:56:31;22.50;;;12.88;;
73219;SDS011;61434;43.538;-5.688;2022-12-07T04:58:57;19.50;;;12.73;;
73219;SDS011;61434;43.538;-5.688;2022-12-07T05:01:22;23.40;;;12.30;;
73219;SDS011;61434;43.538;-5.688;2022-12-07T05:03:49;21.17;;;11.37;;
73219;SDS011;61434;43.538;-5.688;2022-12-07T05:06:15;20.38;;;10.82;;
73219;SDS011;61434;43.538;-5.688;2022-12-07T05:08:41;18.20;;;10.80;;
73219;SDS011;61434;43.538;-5.688;2022-12-07T05:11:07;20.52;;;11.32;;
73219;SDS011;61434;43.538;-5.688;2022-12-07T05:13:34;22.77;;;11.80;;
73219;SDS011;61434;43.538;-5.688;2022-12-07T05:16:00;20.20;;;11.77;;
73219;SDS011;61434;43.538;-5.688;2022-12-07T05:18:26;20.55;;;11.32;;
73219;SDS011;61434;43.538;-5.688;2022-12-07T05:20:52;20.20;;;11.60;;
73219;SDS011;61434;43.538;-5.688;2022-12-07T05:23:17;21.17;;;11.13;;
73219;SDS011;61434;43.538;-5.688;2022-12-07T05:25:43;21.57;;;11.93;;
73219;SDS011;61434;43.538;-5.688;2022-12-07T05:28:09;21.95;;;12.05;;
73219;SDS011;61434;43.538;-5.688;2022-12-07T05:30:35;22.07;;;12.77;;
73219;SDS011;61434;43.538;-5.688;2022-12-07T05:33:00;21.42;;;11.70;;
73219;SDS011;61434;43.538;-5.688;2022-12-07T05:35:27;18.40;;;10.47;;
73219;SDS011;61434;43.538;-5.688;2022-12-07T05:37:53;23.13;;;11.90;;
73219;SDS011;61434;43.538;-5.688;2022-12-07T05:40:19;23.03;;;12.03;;
73219;SDS011;61434;43.538;-5.688;2022-12-07T05:42:44;18.80;;;11.25;;
73219;SDS011;61434;43.538;-5.688;2022-12-07T05:45:10;20.63;;;12.07;;
73219;SDS011;61434;43.538;-5.688;2022-12-07T05:47:37;20.35;;;11.75;;
73219;SDS011;61434;43.538;-5.688;2022-12-07T05:50:03;22.02;;;11.85;;
73219;SDS011;61434;43.538;-5.688;2022-12-07T05:52:30;25.77;;;13.15;;
73219;SDS011;61434;43.538;-5.688;2022-12-07T05:54:55;21.43;;;11.73;;
73219;SDS011;61434;43.538;-5.688;2022-12-07T05:57:21;22.43;;;10.83;;
73219;SDS011;61434;43.538;-5.688;2022-12-07T05:59:46;20.97;;;11.53;;
73219;SDS011;61434;43.538;-5.688;2022-12-07T06:02:13;23.70;;;11.77;;
73219;SDS011;61434;43.538;-5.688;2022-12-07T06:04:41;24.87;;;11.83;;
73219;SDS011;61434;43.538;-5.688;2022-12-07T06:07:09;20.92;;;11.70;;
73219;SDS011;61434;43.538;-5.688;2022-12-07T06:09:35;20.73;;;12.43;;
73219;SDS011;61434;43.538;-5.688;2022-12-07T06:12:01;23.52;;;11.55;;
73219;SDS011;61434;43.538;-5.688;2022-12-07T06:14:45;23.33;;;11.60;;
73219;SDS011;61434;43.538;-5.688;2022-12-07T06:17:11;26.85;;;12.27;;
73219;SDS011;61434;43.538;-5.688;2022-12-07T06:19:37;23.52;;;12.75;;
73219;SDS011;61434;43.538;-5.688;2022-12-07T06:22:04;22.57;;;12.90;;
73219;SDS011;61434;43.538;-5.688;2022-12-07T06:24:30;22.83;;;12.60;;
73219;SDS011;61434;43.538;-5.688;2022-12-07T06:26:57;25.00;;;13.25;;
73219;SDS011;61434;43.538;-5.688;2022-12-07T06:29:23;30.15;;;14.45;;
73219;SDS011;61434;43.538;-5.688;2022-12-07T06:31:49;29.83;;;13.87;;
73219;SDS011;61434;43.538;-5.688;2022-12-07T06:34:15;27.10;;;13.67;;
73219;SDS011;61434;43.538;-5.688;2022-12-07T06:36:43;24.05;;;14.02;;
73219;SDS011;61434;43.538;-5.688;2022-12-07T06:39:09;25.27;;;13.15;;
73219;SDS011;61434;43.538;-5.688;2022-12-07T06:41:38;24.90;;;14.30;;
73219;SDS011;61434;43.538;-5.688;2022-12-07T06:44:04;27.70;;;15.43;;
73219;SDS011;61434;43.538;-5.688;2022-12-07T06:46:30;25.53;;;16.30;;
73219;SDS011;61434;43.538;-5.688;2022-12-07T06:48:56;27.00;;;16.58;;
73219;SDS011;61434;43.538;-5.688;2022-12-07T06:51:22;25.17;;;14.40;;
73219;SDS011;61434;43.538;-5.688;2022-12-07T06:53:47;22.37;;;14.10;;
73219;SDS011;61434;43.538;-5.688;2022-12-07T06:56:13;31.13;;;15.75;;
73219;SDS011;61434;43.538;-5.688;2022-12-07T06:58:38;24.90;;;15.23;;
73219;SDS011;61434;43.538;-5.688;2022-12-07T07:01:11;27.75;;;17.67;;
73219;SDS011;61434;43.538;-5.688;2022-12-07T07:03:37;24.75;;;15.88;;
73219;SDS011;61434;43.538;-5.688;2022-12-07T07:06:04;25.73;;;14.47;;
73219;SDS011;61434;43.538;-5.688;2022-12-07T07:08:31;24.23;;;12.30;;
73219;SDS011;61434;43.538;-5.688;2022-12-07T07:10:56;31.83;;;15.50;;
73219;SDS011;61434;43.538;-5.688;2022-12-07T07:13:22;26.73;;;14.02;;
73219;SDS011;61434;43.538;-5.688;2022-12-07T07:15:47;24.83;;;14.97;;
73219;SDS011;61434;43.538;-5.688;2022-12-07T07:18:13;23.33;;;13.53;;
73219;SDS011;61434;43.538;-5.688;2022-12-07T07:20:38;26.33;;;12.52;;
73219;SDS011;61434;43.538;-5.688;2022-12-07T07:23:04;26.97;;;13.57;;
73219;SDS011;61434;43.538;-5.688;2022-12-07T07:25:30;26.10;;;13.43;;
73219;SDS011;61434;43.538;-5.688;2022-12-07T07:27:56;22.30;;;12.10;;
73219;SDS011;61434;43.538;-5.688;2022-12-07T07:30:21;21.67;;;12.43;;
73219;SDS011;61434;43.538;-5.688;2022-12-07T07:32:47;23.40;;;11.23;;
73219;SDS011;61434;43.538;-5.688;2022-12-07T07:35:12;27.20;;;11.93;;
73219;SDS011;61434;43.538;-5.688;2022-12-07T07:37:39;25.38;;;12.15;;
73219;SDS011;61434;43.538;-5.688;2022-12-07T07:40:05;23.80;;;11.80;;
73219;SDS011;61434;43.538;-5.688;2022-12-07T07:42:31;25.90;;;12.45;;
73219;SDS011;61434;43.538;-5.688;2022-12-07T07:44:56;22.47;;;11.50;;
73219;SDS011;61434;43.538;-5.688;2022-12-07T07:47:22;24.90;;;12.17;;
73219;SDS011;61434;43.538;-5.688;2022-12-07T07:49:47;28.03;;;12.90;;
73219;SDS011;61434;43.538;-5.688;2022-12-07T07:52:13;31.30;;;14.23;;
73219;SDS011;61434;43.538;-5.688;2022-12-07T07:54:38;28.40;;;12.83;;
73219;SDS011;61434;43.538;-5.688;2022-12-07T07:57:03;29.93;;;13.63;;
73219;SDS011;61434;43.538;-5.688;2022-12-07T07:59:29;25.90;;;13.07;;
73219;SDS011;61434;43.538;-5.688;2022-12-07T08:01:54;30.60;;;14.85;;
73219;SDS011;61434;43.538;-5.688;2022-12-07T08:04:20;25.97;;;13.43;;
73219;SDS011;61434;43.538;-5.688;2022-12-07T08:06:45;31.50;;;15.10;;
73219;SDS011;61434;43.538;-5.688;2022-12-07T08:09:11;25.57;;;13.00;;
73219;SDS011;61434;43.538;-5.688;2022-12-07T08:11:37;24.33;;;12.38;;
73219;SDS011;61434;43.538;-5.688;2022-12-07T08:14:02;23.67;;;12.10;;
73219;SDS011;61434;43.538;-5.688;2022-12-07T08:16:28;21.33;;;11.80;;
73219;SDS011;61434;43.538;-5.688;2022-12-07T08:18:53;24.37;;;12.40;;
73219;SDS011;61434;43.538;-5.688;2022-12-07T08:21:19;26.60;;;11.80;;
73219;SDS011;61434;43.538;-5.688;2022-12-07T08:23:45;21.88;;;12.00;;
73219;SDS011;61434;43.538;-5.688;2022-12-07T08:26:12;24.43;;;12.00;;
73219;SDS011;61434;43.538;-5.688;2022-12-07T08:28:39;27.17;;;12.98;;
73219;SDS011;61434;43.538;-5.688;2022-12-07T08:31:10;24.60;;;11.97;;
73219;SDS011;61434;43.538;-5.688;2022-12-07T08:33:40;22.30;;;11.88;;
73219;SDS011;61434;43.538;-5.688;2022-12-07T08:36:08;25.88;;;11.73;;
73219;SDS011;61434;43.538;-5.688;2022-12-07T08:38:35;26.58;;;12.38;;
73219;SDS011;61434;43.538;-5.688;2022-12-07T08:41:02;28.20;;;10.85;;
73219;SDS011;61434;43.538;-5.688;2022-12-07T08:43:28;29.67;;;12.00;;
73219;SDS011;61434;43.538;-5.688;2022-12-07T08:45:58;23.52;;;11.25;;
73219;SDS011;61434;43.538;-5.688;2022-12-07T08:49:02;29.40;;;12.35;;
73219;SDS011;61434;43.538;-5.688;2022-12-07T08:51:31;27.60;;;11.43;;
73219;SDS011;61434;43.538;-5.688;2022-12-07T08:53:57;30.10;;;12.77;;
73219;SDS011;61434;43.538;-5.688;2022-12-07T08:56:25;29.52;;;11.20;;
73219;SDS011;61434;43.538;-5.688;2022-12-07T08:58:52;27.75;;;12.05;;
73219;SDS011;61434;43.538;-5.688;2022-12-07T09:01:18;30.25;;;12.20;;
73219;SDS011;61434;43.538;-5.688;2022-12-07T09:03:43;31.97;;;12.60;;
73219;SDS011;61434;43.538;-5.688;2022-12-07T09:06:09;24.73;;;10.83;;
73219;SDS011;61434;43.538;-5.688;2022-12-07T09:08:36;29.30;;;12.13;;
73219;SDS011;61434;43.538;-5.688;2022-12-07T09:11:05;23.58;;;10.80;;
73219;SDS011;61434;43.538;-5.688;2022-12-07T09:13:31;23.90;;;9.53;;
73219;SDS011;61434;43.538;-5.688;2022-12-07T09:15:56;19.52;;;9.45;;
73219;SDS011;61434;43.538;-5.688;2022-12-07T09:18:22;21.70;;;9.97;;
73219;SDS011;61434;43.538;-5.688;2022-12-07T09:20:49;21.05;;;9.57;;
73219;SDS011;61434;43.538;-5.688;2022-12-07T09:23:15;24.13;;;10.40;;
73219;SDS011;61434;43.538;-5.688;2022-12-07T09:25:41;21.58;;;10.10;;
73219;SDS011;61434;43.538;-5.688;2022-12-07T09:28:06;21.57;;;10.10;;
73219;SDS011;61434;43.538;-5.688;2022-12-07T09:30:32;24.07;;;11.57;;
73219;SDS011;61434;43.538;-5.688;2022-12-07T09:32:57;23.08;;;10.70;;
73219;SDS011;61434;43.538;-5.688;2022-12-07T09:35:23;18.00;;;9.57;;
73219;SDS011;61434;43.538;-5.688;2022-12-07T09:37:50;16.83;;;9.95;;
73219;SDS011;61434;43.538;-5.688;2022-12-07T09:40:16;20.63;;;10.60;;
73219;SDS011;61434;43.538;-5.688;2022-12-07T09:42:45;22.47;;;10.97;;
73219;SDS011;61434;43.538;-5.688;2022-12-07T09:45:18;21.10;;;11.13;;
73219;SDS011;61434;43.538;-5.688;2022-12-07T09:48:03;23.92;;;11.55;;
73219;SDS011;61434;43.538;-5.688;2022-12-07T09:50:29;27.00;;;11.95;;
73219;SDS011;61434;43.538;-5.688;2022-12-07T09:53:08;25.60;;;11.43;;
73219;SDS011;61434;43.538;-5.688;2022-12-07T09:55:39;27.37;;;11.60;;
73219;SDS011;61434;43.538;-5.688;2022-12-07T09:58:08;26.52;;;11.13;;
73219;SDS011;61434;43.538;-5.688;2022-12-07T10:00:42;22.88;;;12.73;;
73219;SDS011;61434;43.538;-5.688;2022-12-07T10:03:08;24.83;;;12.30;;
73219;SDS011;61434;43.538;-5.688;2022-12-07T10:05:37;23.60;;;11.95;;
73219;SDS011;61434;43.538;-5.688;2022-12-07T10:08:07;26.50;;;11.68;;
73219;SDS011;61434;43.538;-5.688;2022-12-07T10:10:36;34.05;;;13.23;;
73219;SDS011;61434;43.538;-5.688;2022-12-07T10:15:47;28.27;;;13.80;;
73219;SDS011;61434;43.538;-5.688;2022-12-07T10:23:42;25.38;;;11.90;;
73219;SDS011;61434;43.538;-5.688;2022-12-07T10:29:12;23.83;;;11.80;;
73219;SDS011;61434;43.538;-5.688;2022-12-07T10:31:42;28.45;;;12.55;;
73219;SDS011;61434;43.538;-5.688;2022-12-07T10:34:20;25.05;;;11.32;;
73219;SDS011;61434;43.538;-5.688;2022-12-07T10:36:52;29.20;;;13.80;;
73219;SDS011;61434;43.538;-5.688;2022-12-07T10:39:22;26.02;;;12.48;;
73219;SDS011;61434;43.538;-5.688;2022-12-07T10:42:01;25.20;;;12.90;;
73219;SDS011;61434;43.538;-5.688;2022-12-07T10:44:28;24.48;;;10.65;;
73219;SDS011;61434;43.538;-5.688;2022-12-07T10:50:11;25.65;;;13.75;;
73219;SDS011;61434;43.538;-5.688;2022-12-07T11:01:23;25.70;;;13.30;;
73219;SDS011;61434;43.538;-5.688;2022-12-07T11:18:22;18.73;;;8.00;;
73219;SDS011;61434;43.538;-5.688;2022-12-07T11:21:05;14.45;;;7.68;;
73219;SDS011;61434;43.538;-5.688;2022-12-07T11:23:56;12.30;;;6.23;;
73219;SDS011;61434;43.538;-5.688;2022-12-07T11:37:25;20.90;;;8.30;;
73219;SDS011;61434;43.538;-5.688;2022-12-07T11:39:59;13.80;;;7.13;;
73219;SDS011;61434;43.538;-5.688;2022-12-07T11:42:29;17.20;;;7.85;;
73219;SDS011;61434;43.538;-5.688;2022-12-07T11:45:23;18.85;;;7.25;;
73219;SDS011;61434;43.538;-5.688;2022-12-07T11:47:54;14.30;;;6.10;;
73219;SDS011;61434;43.538;-5.688;2022-12-07T11:50:41;12.37;;;6.13;;
73219;SDS011;61434;43.538;-5.688;2022-12-07T11:56:15;11.05;;;5.85;;
73219;SDS011;61434;43.538;-5.688;2022-12-07T11:58:56;18.45;;;7.22;;
73219;SDS011;61434;43.538;-5.688;2022-12-07T12:06:39;13.57;;;7.32;;
73219;SDS011;61434;43.538;-5.688;2022-12-07T12:09:20;13.93;;;6.68;;
73219;SDS011;61434;43.538;-5.688;2022-12-07T12:14:58;22.48;;;8.18;;
73219;SDS011;61434;43.538;-5.688;2022-12-07T12:27:58;18.42;;;8.07;;
73219;SDS011;61434;43.538;-5.688;2022-12-07T12:33:06;17.40;;;8.27;;
73219;SDS011;61434;43.538;-5.688;2022-12-07T12:35:40;16.98;;;8.43;;
73219;SDS011;61434;43.538;-5.688;2022-12-07T12:38:26;13.90;;;6.60;;
73219;SDS011;61434;43.538;-5.688;2022-12-07T12:40:55;11.82;;;4.63;;
73219;SDS011;61434;43.538;-5.688;2022-12-07T12:48:54;11.98;;;4.03;;
73219;SDS011;61434;43.538;-5.688;2022-12-07T12:54:11;7.28;;;3.03;;
73219;SDS011;61434;43.538;-5.688;2022-12-07T12:56:49;9.10;;;3.77;;
73219;SDS011;61434;43.538;-5.688;2022-12-07T13:01:46;9.17;;;3.63;;
73219;SDS011;61434;43.538;-5.688;2022-12-07T13:04:15;11.07;;;4.00;;
73219;SDS011;61434;43.538;-5.688;2022-12-07T13:06:46;8.93;;;3.95;;
73219;SDS011;61434;43.538;-5.688;2022-12-07T13:09:28;9.73;;;3.47;;
73219;SDS011;61434;43.538;-5.688;2022-12-07T13:12:02;11.38;;;4.13;;
73219;SDS011;61434;43.538;-5.688;2022-12-07T13:19:58;13.75;;;4.43;;
73219;SDS011;61434;43.538;-5.688;2022-12-07T13:27:39;13.63;;;4.90;;
73219;SDS011;61434;43.538;-5.688;2022-12-07T13:30:11;11.93;;;3.97;;
73219;SDS011;61434;43.538;-5.688;2022-12-07T13:32:40;14.18;;;4.72;;
73219;SDS011;61434;43.538;-5.688;2022-12-07T13:37:54;13.32;;;4.57;;
73219;SDS011;61434;43.538;-5.688;2022-12-07T13:40:20;13.70;;;4.13;;
73219;SDS011;61434;43.538;-5.688;2022-12-07T13:42:47;10.93;;;4.73;;
73219;SDS011;61434;43.538;-5.688;2022-12-07T13:45:23;12.80;;;4.70;;
73219;SDS011;61434;43.538;-5.688;2022-12-07T13:48:33;15.68;;;4.30;;
73219;SDS011;61434;43.538;-5.688;2022-12-07T13:50:59;12.03;;;4.90;;
73219;SDS011;61434;43.538;-5.688;2022-12-07T13:53:26;15.13;;;4.78;;
73219;SDS011;61434;43.538;-5.688;2022-12-07T13:55:59;13.00;;;5.07;;
73219;SDS011;61434;43.538;-5.688;2022-12-07T13:58:26;16.65;;;5.07;;
73219;SDS011;61434;43.538;-5.688;2022-12-07T14:00:55;13.82;;;4.55;;
73219;SDS011;61434;43.538;-5.688;2022-12-07T14:03:29;12.60;;;4.63;;
73219;SDS011;61434;43.538;-5.688;2022-12-07T14:09:05;10.23;;;4.53;;
73219;SDS011;61434;43.538;-5.688;2022-12-07T14:11:51;13.95;;;4.32;;
73219;SDS011;61434;43.538;-5.688;2022-12-07T14:14:21;11.30;;;4.30;;
73219;SDS011;61434;43.538;-5.688;2022-12-07T14:19:41;13.57;;;4.75;;
73219;SDS011;61434;43.538;-5.688;2022-12-07T14:22:20;11.30;;;4.43;;
73219;SDS011;61434;43.538;-5.688;2022-12-07T14:24:48;12.20;;;4.38;;
73219;SDS011;61434;43.538;-5.688;2022-12-07T14:27:21;12.23;;;4.50;;
73219;SDS011;61434;43.538;-5.688;2022-12-07T14:29:48;10.90;;;4.00;;
73219;SDS011;61434;43.538;-5.688;2022-12-07T14:34:56;12.85;;;4.53;;
73219;SDS011;61434;43.538;-5.688;2022-12-07T14:37:24;11.50;;;4.40;;
73219;SDS011;61434;43.538;-5.688;2022-12-07T14:39:50;17.05;;;4.60;;
73219;SDS011;61434;43.538;-5.688;2022-12-07T14:42:16;12.77;;;4.70;;
73219;SDS011;61434;43.538;-5.688;2022-12-07T14:44:41;12.50;;;4.60;;
73219;SDS011;61434;43.538;-5.688;2022-12-07T14:47:09;11.52;;;4.47;;
73219;SDS011;61434;43.538;-5.688;2022-12-07T14:49:36;11.98;;;4.28;;
73219;SDS011;61434;43.538;-5.688;2022-12-07T14:52:01;13.53;;;4.63;;
73219;SDS011;61434;43.538;-5.688;2022-12-07T14:54:27;14.40;;;4.97;;
73219;SDS011;61434;43.538;-5.688;2022-12-07T14:56:57;18.07;;;4.47;;
73219;SDS011;61434;43.538;-5.688;2022-12-07T14:59:22;18.08;;;4.82;;
73219;SDS011;61434;43.538;-5.688;2022-12-07T15:01:48;13.10;;;5.20;;
73219;SDS011;61434;43.538;-5.688;2022-12-07T15:04:13;12.85;;;4.55;;
73219;SDS011;61434;43.538;-5.688;2022-12-07T15:06:39;14.90;;;4.80;;
73219;SDS011;61434;43.538;-5.688;2022-12-07T15:09:05;10.33;;;4.67;;
73219;SDS011;61434;43.538;-5.688;2022-12-07T15:11:31;11.82;;;4.90;;
73219;SDS011;61434;43.538;-5.688;2022-12-07T15:13:56;13.27;;;4.43;;
73219;SDS011;61434;43.538;-5.688;2022-12-07T15:16:37;15.95;;;5.25;;
73219;SDS011;61434;43.538;-5.688;2022-12-07T15:19:05;10.93;;;4.50;;
73219;SDS011;61434;43.538;-5.688;2022-12-07T15:21:31;11.68;;;4.80;;
73219;SDS011;61434;43.538;-5.688;2022-12-07T15:23:56;15.20;;;5.30;;
73219;SDS011;61434;43.538;-5.688;2022-12-07T15:26:22;14.23;;;4.40;;
73219;SDS011;61434;43.538;-5.688;2022-12-07T15:28:47;13.53;;;4.70;;
73219;SDS011;61434;43.538;-5.688;2022-12-07T15:31:16;13.07;;;4.40;;
73219;SDS011;61434;43.538;-5.688;2022-12-07T15:33:42;10.07;;;4.70;;
73219;SDS011;61434;43.538;-5.688;2022-12-07T15:36:20;10.15;;;4.88;;
73219;SDS011;61434;43.538;-5.688;2022-12-07T15:38:48;15.50;;;4.97;;
73219;SDS011;61434;43.538;-5.688;2022-12-07T15:41:14;16.23;;;4.30;;
73219;SDS011;61434;43.538;-5.688;2022-12-07T15:43:39;9.60;;;4.22;;
73219;SDS011;61434;43.538;-5.688;2022-12-07T15:46:28;11.27;;;4.22;;
73219;SDS011;61434;43.538;-5.688;2022-12-07T15:48:54;12.00;;;4.38;;
73219;SDS011;61434;43.538;-5.688;2022-12-07T15:51:20;14.60;;;4.23;;
73219;SDS011;61434;43.538;-5.688;2022-12-07T15:53:45;13.17;;;4.10;;
73219;SDS011;61434;43.538;-5.688;2022-12-07T15:56:11;15.97;;;4.43;;
73219;SDS011;61434;43.538;-5.688;2022-12-07T15:58:37;11.00;;;4.30;;
73219;SDS011;61434;43.538;-5.688;2022-12-07T16:01:09;15.17;;;4.40;;
73219;SDS011;61434;43.538;-5.688;2022-12-07T16:03:39;10.75;;;4.13;;
73219;SDS011;61434;43.538;-5.688;2022-12-07T16:06:05;13.50;;;4.50;;
73219;SDS011;61434;43.538;-5.688;2022-12-07T16:08:31;10.95;;;4.10;;
73219;SDS011;61434;43.538;-5.688;2022-12-07T16:10:56;10.32;;;3.67;;
73219;SDS011;61434;43.538;-5.688;2022-12-07T16:13:22;11.00;;;4.60;;
73219;SDS011;61434;43.538;-5.688;2022-12-07T16:15:47;13.33;;;3.97;;
73219;SDS011;61434;43.538;-5.688;2022-12-07T16:18:13;12.10;;;4.37;;
73219;SDS011;61434;43.538;-5.688;2022-12-07T16:20:39;11.13;;;4.18;;
73219;SDS011;61434;43.538;-5.688;2022-12-07T16:23:05;11.88;;;4.72;;
73219;SDS011;61434;43.538;-5.688;2022-12-07T16:25:30;11.57;;;4.40;;
73219;SDS011;61434;43.538;-5.688;2022-12-07T16:27:56;9.17;;;3.47;;
73219;SDS011;61434;43.538;-5.688;2022-12-07T16:30:21;13.75;;;4.35;;
73219;SDS011;61434;43.538;-5.688;2022-12-07T16:32:47;9.80;;;3.90;;
73219;SDS011;61434;43.538;-5.688;2022-12-07T16:35:12;10.87;;;4.20;;
73219;SDS011;61434;43.538;-5.688;2022-12-07T16:37:38;10.80;;;4.55;;
73219;SDS011;61434;43.538;-5.688;2022-12-07T16:40:06;14.10;;;4.50;;